Time;durP1;ratioP1;P1;durP2;ratioP2;P2;SDS_P1;SDS_P2;PMS_P1;PMS_P2;Temp;Humidity;BMP_temperature;BMP_pressure;BME280_temperature;BME280_humidity;BME280_pressure;Samples;Min_cycle;Max_cycle;Signal;HPM_P1;HPM_P2
2023/04/03 00:02:41;;;;;;;;;;;;;;;;;;5002175;28;20644;-86
2023/04/03 00:05:28;;;;;;;;;;;;;;;;;;5006188;28;19913;-85
2023/04/03 00:08:15;;;;;;;;;;;;;;;;;;4993910;28;19922;-86
2023/04/03 00:11:01;;;;;;;;;;;;;;;;;;5004421;28;19932;-85
2023/04/03 00:13:48;;;;;;;;;;;;;;;;;;5005319;28;19957;-86
2023/04/03 00:16:34;;;;;;;;;;;;;;;;;;4991279;28;20389;-86
2023/04/03 00:19:21;;;;;;;;;;;;;;;;;;4989983;28;19922;-86
2023/04/03 00:22:07;;;;;;;;;;;;;;;;;;5004587;28;19928;-85
2023/04/03 00:24:54;;;;;;;;;;;;;;;;;;5005115;28;19917;-86
2023/04/03 00:27:40;;;;;;;;;;;;;;;;;;4990814;28;19924;-85
2023/04/03 00:30:27;;;;;;;;;;;;;;;;;;4991841;28;19928;-85
2023/04/03 00:33:13;;;;;;;;;;;;;;;;;;5005585;28;19919;-89
2023/04/03 00:36:00;;;;;;;;;;;;;;;;;;5006230;28;19913;-86
2023/04/03 00:38:46;;;;;;;;;;;;;;;;;;5004749;28;19932;-87
2023/04/03 00:41:33;;;;;;;;;;;;;;;;;;5005757;28;19921;-86
2023/04/03 00:44:19;;;;;;;;;;;;;;;;;;5004078;28;20309;-85
2023/04/03 00:47:06;;;;;;;;;;;;;;;;;;5004982;28;19945;-85
2023/04/03 00:49:52;;;;;;;;;;;;;;;;;;5002887;28;19921;-87
2023/04/03 00:52:39;;;;;;;;;;;;;;;;;;5000861;28;19918;-87
2023/04/03 00:55:25;;;;;;;;;;;;;;;;;;5000426;28;19925;-87
2023/04/03 00:58:12;;;;;;;;;;;;;;;;;;5003533;28;19918;-87
2023/04/03 01:00:58;;;;;;;;;;;;;;;;;;5003852;28;19917;-87
2023/04/03 01:03:45;;;;;;;;;;;;;;;;;;5000603;28;19917;-85
2023/04/03 01:06:32;;;;;;;;;;;;;;;;;;5000789;28;19928;-85
2023/04/03 01:09:19;;;;;;;;;;;;;;;;;;5006257;28;20313;-85
2023/04/03 01:12:05;;;;;;;;;;;;;;;;;;4996728;28;19932;-86
2023/04/03 01:14:52;;;;;;;;;;;;;;;;;;4995653;28;19936;-85
2023/04/03 01:17:38;;;;;;;;;;;;;;;;;;4977319;28;19917;-86
2023/04/03 01:20:25;;;;;;;;;;;;;;;;;;4995961;28;19940;-86
2023/04/03 01:23:11;;;;;;;;;;;;;;;;;;5006921;28;19924;-85
2023/04/03 01:25:58;;;;;;;;;;;;;;;;;;5006075;28;19924;-85
2023/04/03 01:28:44;;;;;;;;;;;;;;;;;;5005120;28;19929;-84
2023/04/03 01:31:31;;;;;;;;;;;;;;;;;;5008059;28;20407;-86
2023/04/03 01:34:17;;;;;;;;;;;;;;;;;;5003972;28;19921;-86
2023/04/03 01:37:04;;;;;;;;;;;;;;;;;;5001357;28;19925;-87
2023/04/03 01:39:50;;;;;;;;;;;;;;;;;;5005312;28;19928;-87
2023/04/03 01:42:37;;;;;;;;;;;;;;;;;;4996337;28;19922;-86
2023/04/03 01:45:23;;;;;;;;;;;;;;;;;;4990656;28;19935;-86
2023/04/03 01:48:10;;;;;;;;;;;;;;;;;;5002373;28;19933;-84
2023/04/03 01:50:56;;;;;;;;;;;;;;;;;;5005071;28;19929;-83
2023/04/03 01:53:43;;;;;;;;;;;;;;;;;;4988189;28;20480;-84
2023/04/03 01:56:29;;;;;;;;;;;;;;;;;;4988472;28;19918;-83
2023/04/03 01:59:17;;;;;;;;;;;;;;;;;;4996423;28;20680;-84
2023/04/03 02:02:04;;;;;;;;;;;;;;;;;;5000405;28;19929;-85
2023/04/03 02:04:50;;;;;;;;;;;;;;;;;;4987563;28;19922;-85
2023/04/03 02:07:37;;;;;;;;;;;;;;;;;;4998404;28;20293;-87
2023/04/03 02:10:25;;;;;;;;;;;;;;;;;;4998163;28;19937;-86
2023/04/03 02:13:12;;;;;;;;;;;;;;;;;;4993888;28;19924;-87
2023/04/03 02:15:58;;;;;;;;;;;;;;;;;;4999644;28;19936;-86
2023/04/03 02:18:45;;;;;;;;;;;;;;;;;;4996566;28;19918;-86
2023/04/03 02:21:31;;;;;;;;;;;;;;;;;;4999994;28;19930;-87
2023/04/03 02:24:18;;;;;;;;;;;;;;;;;;4999660;28;19918;-87
2023/04/03 02:27:04;;;;;;;;;;;;;;;;;;5000456;28;20386;-81
2023/04/03 02:29:51;;;;;;;;;;;;;;;;;;5001843;28;19928;-87
2023/04/03 02:32:37;;;;;;;;;;;;;;;;;;4995316;28;19943;-87
2023/04/03 02:35:24;;;;;;;;;;;;;;;;;;4999377;28;19928;-86
2023/04/03 02:38:10;;;;;;;;;;;;;;;;;;4999682;28;20286;-86
2023/04/03 02:40:57;;;;;;;;;;;;;;;;;;5004333;28;19921;-86
2023/04/03 02:43:43;;;;;;;;;;;;;;;;;;4994863;28;19924;-85
2023/04/03 02:46:30;;;;;;;;;;;;;;;;;;5003934;28;19917;-86
2023/04/03 02:49:16;;;;;;;;;;;;;;;;;;4999379;28;19925;-86
2023/04/03 02:52:03;;;;;;;;;;;;;;;;;;5002204;28;19932;-87
2023/04/03 02:54:49;;;;;;;;;;;;;;;;;;4988078;28;20545;-85
2023/04/03 02:57:36;;;;;;;;;;;;;;;;;;4999347;28;19913;-86
2023/04/03 03:00:22;;;;;;;;;;;;;;;;;;5000727;28;19918;-88
2023/04/03 03:03:09;;;;;;;;;;;;;;;;;;5002546;28;19917;-82
2023/04/03 03:05:55;;;;;;;;;;;;;;;;;;4990960;28;19944;-82
2023/04/03 03:08:42;;;;;;;;;;;;;;;;;;5001465;28;19914;-83
2023/04/03 03:11:28;;;;;;;;;;;;;;;;;;4994450;28;19936;-83
2023/04/03 03:14:15;;;;;;;;;;;;;;;;;;5003239;28;19922;-83
2023/04/03 03:17:01;;;;;;;;;;;;;;;;;;4996859;28;19918;-83
2023/04/03 03:19:48;;;;;;;;;;;;;;;;;;4997152;28;19940;-83
2023/04/03 03:22:34;;;;;;;;;;;;;;;;;;4998744;28;19918;-83
2023/04/03 03:25:22;;;;;;;;;;;;;;;;;;5006274;28;19997;-84
2023/04/03 03:28:08;;;;;;;;;;;;;;;;;;4993801;28;19921;-82
2023/04/03 03:30:55;;;;;;;;;;;;;;;;;;4999160;28;19925;-84
2023/04/03 03:33:41;;;;;;;;;;;;;;;;;;4996490;28;19924;-83
2023/04/03 03:36:28;;;;;;;;;;;;;;;;;;4996199;28;20286;-83
2023/04/03 03:39:14;;;;;;;;;;;;;;;;;;4993725;28;19923;-83
2023/04/03 03:42:01;;;;;;;;;;;;;;;;;;5005587;28;19917;-83
2023/04/03 03:44:47;;;;;;;;;;;;;;;;;;5017356;28;19928;-83
2023/04/03 03:47:34;;;;;;;;;;;;;;;;;;4989739;28;19914;-83
2023/04/03 03:50:20;;;;;;;;;;;;;;;;;;5002693;28;19922;-83
2023/04/03 03:53:07;;;;;;;;;;;;;;;;;;5003011;28;20933;-83
2023/04/03 03:55:53;;;;;;;;;;;;;;;;;;5007765;28;19917;-83
2023/04/03 03:58:39;;;;;;;;;;;;;;;;;;4993849;28;19949;-83
2023/04/03 04:01:26;;;;;;;;;;;;;;;;;;5013271;28;19918;-82
2023/04/03 04:04:12;;;;;;;;;;;;;;;;;;5000102;28;20406;-83
2023/04/03 04:07:00;;;;;;;;;;;;;;;;;;5003364;28;20432;-83
2023/04/03 04:09:46;;;;;;;;;;;;;;;;;;4992486;28;19922;-83
2023/04/03 04:12:35;;;;;;;;;;;;;;;;;;5000184;28;19929;-83
2023/04/03 04:15:22;;;;;;;;;;;;;;;;;;4998228;28;19944;-83
2023/04/03 04:18:09;;;;;;;;;;;;;;;;;;4997965;28;19918;-83
2023/04/03 04:20:55;;;;;;;;;;;;;;;;;;4996375;28;19936;-83
2023/04/03 04:23:42;;;;;;;;;;;;;;;;;;5005126;28;20388;-83
2023/04/03 04:26:28;;;;;;;;;;;;;;;;;;5005567;28;19930;-83
2023/04/03 04:29:15;;;;;;;;;;;;;;;;;;5004227;28;20000;-83
2023/04/03 04:32:01;;;;;;;;;;;;;;;;;;5006023;28;19925;-87
2023/04/03 04:34:48;;;;;;;;;;;;;;;;;;5003032;28;19932;-88
2023/04/03 04:37:34;;;;;;;;;;;;;;;;;;5002670;28;19913;-87
2023/04/03 04:40:21;;;;;;;;;;;;;;;;;;5005781;28;19960;-88
2023/04/03 04:43:07;;;;;;;;;;;;;;;;;;5004864;28;19921;-87
2023/04/03 04:45:53;;;;;;;;;;;;;;;;;;4977343;28;19918;-87
2023/04/03 04:48:40;;;;;;;;;;;;;;;;;;5005185;28;19923;-86
2023/04/03 04:51:27;;;;;;;;;;;;;;;;;;5005213;28;19925;-87
2023/04/03 04:54:13;;;;;;;;;;;;;;;;;;4994867;28;19913;-89
2023/04/03 04:57:00;;;;;;;;;;;;;;;;;;5004943;28;19913;-86
2023/04/03 04:59:46;;;;;;;;;;;;;;;;;;5002027;28;19964;-86
2023/04/03 05:02:33;;;;;;;;;;;;;;;;;;5002736;28;19929;-85
2023/04/03 05:05:19;;;;;;;;;;;;;;;;;;5001090;28;19917;-86
2023/04/03 05:08:06;;;;;;;;;;;;;;;;;;5003003;28;19920;-85
2023/04/03 05:10:53;;;;;;;;;;;;;;;;;;5003294;28;19933;-85
2023/04/03 05:13:39;;;;;;;;;;;;;;;;;;4992752;28;19917;-87
2023/04/03 05:16:26;;;;;;;;;;;;;;;;;;5002114;28;20444;-86
2023/04/03 05:19:12;;;;;;;;;;;;;;;;;;4993258;28;19917;-88
2023/04/03 05:21:59;;;;;;;;;;;;;;;;;;5000682;28;19924;-87
2023/04/03 05:24:45;;;;;;;;;;;;;;;;;;5003693;28;20337;-87
2023/04/03 05:27:32;;;;;;;;;;;;;;;;;;5001205;28;19922;-89
2023/04/03 05:30:18;;;;;;;;;;;;;;;;;;5002341;28;19922;-87
2023/04/03 05:33:05;;;;;;;;;;;;;;;;;;4993539;28;20680;-83
2023/04/03 05:35:52;;;;;;;;;;;;;;;;;;5002515;28;20555;-87
2023/04/03 05:38:38;;;;;;;;;;;;;;;;;;5001601;28;19929;-88
2023/04/03 05:41:25;;;;;;;;;;;;;;;;;;5005403;28;19925;-87
2023/04/03 05:44:12;;;;;;;;;;;;;;;;;;4996264;28;19921;-86
2023/04/03 05:46:58;;;;;;;;;;;;;;;;;;5002916;28;20373;-86
2023/04/03 05:49:45;;;;;;;;;;;;;;;;;;4997095;28;19925;-83
2023/04/03 05:52:31;;;;;;;;;;;;;;;;;;4997992;28;19933;-84
2023/04/03 05:55:18;;;;;;;;;;;;;;;;;;5002919;28;19928;-88
2023/04/03 05:58:04;;;;;;;;;;;;;;;;;;5004662;28;19922;-94
2023/04/03 06:00:51;;;;;;;;;;;;;;;;;;5007142;28;19928;-89
2023/04/03 06:03:39;;;;;;;;;;;;;;;;;;5005268;28;19921;-88
2023/04/03 06:06:25;;;;;;;;;;;;;;;;;;5007690;28;19921;-93
2023/04/03 06:09:12;;;;;;;;;;;;;;;;;;5001775;28;19921;-90
2023/04/03 06:11:58;;;;;;;;;;;;;;;;;;5001061;28;19925;-81
2023/04/03 06:14:45;;;;;;;;;;;;;;;;;;4997898;28;19925;-82
2023/04/03 06:17:31;;;;;;;;;;;;;;;;;;5000696;28;19929;-82
2023/04/03 06:20:18;;;;;;;;;;;;;;;;;;4997662;28;20021;-83
2023/04/03 06:23:05;;;;;;;;;;;;;;;;;;4986868;28;19944;-77
2023/04/03 06:25:51;;;;;;;;;;;;;;;;;;4999388;28;19953;-82
2023/04/03 06:28:38;;;;;;;;;;;;;;;;;;5001187;28;19920;-82
2023/04/03 06:31:24;;;;;;;;;;;;;;;;;;5001305;28;19926;-82
2023/04/03 06:34:11;;;;;;;;;;;;;;;;;;4998823;28;19913;-82
2023/04/03 06:36:58;;;;;;;;;;;;;;;;;;5002252;28;19932;-83
2023/04/03 06:39:45;;;;;;;;;;;;;;;;;;5002657;28;19921;-82
2023/04/03 06:42:31;;;;;;;;;;;;;;;;;;4990889;28;19922;-82
2023/04/03 06:45:18;;;;;;;;;;;;;;;;;;4991925;28;19928;-82
2023/04/03 06:48:05;;;;;;;;;;;;;;;;;;5001046;28;20301;-82
2023/04/03 06:50:51;;;;;;;;;;;;;;;;;;4995095;28;19926;-82
2023/04/03 06:53:38;;;;;;;;;;;;;;;;;;5003029;28;19945;-82
2023/04/03 06:56:25;;;;;;;;;;;;;;;;;;5003716;28;19914;-82
2023/04/03 06:59:11;;;;;;;;;;;;;;;;;;5002944;28;19914;-81
2023/04/03 07:01:59;;;;;;;;;;;;;;;;;;5001043;28;20362;-80
2023/04/03 07:04:46;;;;;;;;;;;;;;;;;;4992350;28;20581;-81
2023/04/03 07:07:33;;;;;;;;;;;;;;;;;;5002204;28;19928;-84
2023/04/03 07:10:20;;;;;;;;;;;;;;;;;;5001437;28;19917;-83
2023/04/03 07:13:06;;;;;;;;;;;;;;;;;;5004374;28;19921;-83
2023/04/03 07:15:53;;;;;;;;;;;;;;;;;;5006223;28;19929;-84
2023/04/03 07:18:39;;;;;;;;;;;;;;;;;;4984960;28;19925;-82
2023/04/03 07:21:26;;;;;;;;;;;;;;;;;;5003790;28;19928;-85
2023/04/03 07:24:12;;;;;;;;;;;;;;;;;;5000850;28;19917;-83
2023/04/03 07:26:59;;;;;;;;;;;;;;;;;;5000842;28;19933;-82
2023/04/03 07:29:47;;;;;;;;;;;;;;;;;;5007340;28;19917;-83
2023/04/03 07:32:35;;;;;;;;;;;;;;;;;;4995550;28;19938;-85
2023/04/03 07:35:21;;;;;;;;;;;;;;;;;;4996757;28;19925;-84
2023/04/03 07:38:08;;;;;;;;;;;;;;;;;;5002809;28;19917;-83
2023/04/03 07:40:54;;;;;;;;;;;;;;;;;;5001697;28;19937;-84
2023/04/03 07:43:42;;;;;;;;;;;;;;;;;;4998873;28;19925;-84
2023/04/03 07:46:28;;;;;;;;;;;;;;;;;;4991351;28;19913;-84
2023/04/03 07:49:15;;;;;;;;;;;;;;;;;;5002957;28;20373;-85
2023/04/03 07:52:02;;;;;;;;;;;;;;;;;;5006337;28;20304;-82
2023/04/03 07:54:48;;;;;;;;;;;;;;;;;;5005474;28;19926;-82
2023/04/03 07:57:35;;;;;;;;;;;;;;;;;;5001190;28;19925;-82
2023/04/03 08:00:21;;;;;;;;;;;;;;;;;;5003643;28;20262;-82
2023/04/03 08:03:08;;;;;;;;;;;;;;;;;;5004300;28;19933;-82
2023/04/03 08:05:54;;;;;;;;;;;;;;;;;;5002451;28;19929;-82
2023/04/03 08:08:41;;;;;;;;;;;;;;;;;;5001583;28;19922;-82
2023/04/03 08:11:27;;;;;;;;;;;;;;;;;;5001214;28;19933;-83
2023/04/03 08:14:18;;;;;;;;;;;;;;;;;;5003015;28;19929;-81
2023/04/03 08:17:05;;;;;;;;;;;;;;;;;;5005496;28;19951;-82
2023/04/03 08:19:51;;;;;;;;;;;;;;;;;;5003769;28;19932;-81
2023/04/03 08:22:38;;;;;;;;;;;;;;;;;;5002272;28;20634;-80
2023/04/03 08:25:24;;;;;;;;;;;;;;;;;;5003442;28;19914;-80
2023/04/03 08:28:11;;;;;;;;;;;;;;;;;;5005718;28;19917;-80
2023/04/03 08:30:58;;;;;;;;;;;;;;;;;;5000128;28;19931;-80
2023/04/03 08:33:44;;;;;;;;;;;;;;;;;;5002802;28;19924;-82
2023/04/03 08:36:31;;;;;;;;;;;;;;;;;;4996244;28;19929;-82
2023/04/03 08:39:17;;;;;;;;;;;;;;;;;;5001693;28;19921;-81
2023/04/03 08:42:04;;;;;;;;;;;;;;;;;;5002745;28;19926;-80
2023/04/03 08:44:50;;;;;;;;;;;;;;;;;;4998856;28;19929;-82
2023/04/03 08:47:37;;;;;;;;;;;;;;;;;;4999187;28;19943;-82
2023/04/03 08:50:23;;;;;;;;;;;;;;;;;;5003231;28;19920;-79
2023/04/03 08:53:10;;;;;;;;;;;;;;;;;;5002142;28;19937;-79
2023/04/03 08:55:57;;;;;;;;;;;;;;;;;;5003187;28;19914;-79
2023/04/03 08:58:44;;;;;;;;;;;;;;;;;;5003270;28;20020;-79
2023/04/03 09:01:30;;;;;;;;;;;;;;;;;;4999701;28;20365;-80
2023/04/03 09:04:18;;;;;;;;;;;;;;;;;;4997794;28;19918;-80
2023/04/03 09:07:05;;;;;;;;;;;;;;;;;;5000835;28;19918;-78
2023/04/03 09:09:52;;;;;;;;;;;;;;;;;;5001908;28;19917;-79
2023/04/03 09:12:39;;;;;;;;;;;;;;;;;;4995120;28;19929;-79
2023/04/03 09:15:26;;;;;;;;;;;;;;;;;;4997888;28;19938;-79
2023/04/03 09:18:13;;;;;;;;;;;;;;;;;;5000386;28;19917;-80
2023/04/03 09:20:59;;;;;;;;;;;;;;;;;;4973003;28;19918;-79
2023/04/03 09:23:46;;;;;;;;;;;;;;;;;;4995534;28;20475;-79
2023/04/03 09:26:32;;;;;;;;;;;;;;;;;;5001648;28;19921;-81
2023/04/03 09:29:19;;;;;;;;;;;;;;;;;;4991887;28;19924;-79
2023/04/03 09:32:05;;;;;;;;;;;;;;;;;;4994045;28;19940;-79
2023/04/03 09:34:52;;;;;;;;;;;;;;;;;;5004288;28;19924;-79
2023/04/03 09:37:38;;;;;;;;;;;;;;;;;;5000870;28;19928;-78
2023/04/03 09:40:25;;;;;;;;;;;;;;;;;;4986372;28;19921;-80
2023/04/03 09:43:11;;;;;;;;;;;;;;;;;;5002462;28;19922;-78
2023/04/03 09:45:58;;;;;;;;;;;;;;;;;;4999786;28;19936;-80
2023/04/03 09:48:45;;;;;;;;;;;;;;;;;;4987974;28;19918;-80
2023/04/03 09:51:31;;;;;;;;;;;;;;;;;;5001301;28;19932;-81
2023/04/03 09:54:17;;;;;;;;;;;;;;;;;;4980849;28;19924;-80
2023/04/03 09:57:04;;;;;;;;;;;;;;;;;;4996873;28;20012;-80
2023/04/03 09:59:51;;;;;;;;;;;;;;;;;;4998344;28;19933;-81
2023/04/03 10:02:37;;;;;;;;;;;;;;;;;;5002294;28;19929;-81
2023/04/03 10:05:24;;;;;;;;;;;;;;;;;;4992509;28;19920;-79
2023/04/03 10:08:10;;;;;;;;;;;;;;;;;;4998700;28;19928;-80
2023/04/03 10:10:57;;;;;;;;;;;;;;;;;;4997026;28;20013;-83
2023/04/03 10:13:45;;;;;;;;;;;;;;;;;;4998656;28;20332;-80
2023/04/03 10:16:31;;;;;;;;;;;;;;;;;;5003253;28;19937;-81
2023/04/03 10:19:18;;;;;;;;;;;;;;;;;;4994697;28;20384;-81
2023/04/03 10:22:04;;;;;;;;;;;;;;;;;;5003636;28;19921;-81
2023/04/03 10:24:51;;;;;;;;;;;;;;;;;;4999481;28;20579;-81
2023/04/03 10:27:37;;;;;;;;;;;;;;;;;;5002992;28;19922;-76
2023/04/03 10:30:24;;;;;;;;;;;;;;;;;;5000333;28;19929;-76
2023/04/03 10:33:11;;;;;;;;;;;;;;;;;;4997703;28;19941;-76
2023/04/03 10:35:57;;;;;;;;;;;;;;;;;;4991666;28;19928;-75
2023/04/03 10:38:44;;;;;;;;;;;;;;;;;;4997914;28;19920;-74
2023/04/03 10:41:30;;;;;;;;;;;;;;;;;;4995284;28;19917;-76
2023/04/03 10:44:17;;;;;;;;;;;;;;;;;;4991518;28;19921;-76
2023/04/03 10:47:03;;;;;;;;;;;;;;;;;;4991595;28;19920;-75
2023/04/03 10:49:50;;;;;;;;;;;;;;;;;;5000902;28;19933;-74
2023/04/03 10:52:36;;;;;;;;;;;;;;;;;;4998959;28;19932;-74
2023/04/03 10:55:23;;;;;;;;;;;;;;;;;;5000192;28;19924;-75
2023/04/03 10:58:10;;;;;;;;;;;;;;;;;;5000575;28;19924;-75
2023/04/03 11:00:56;;;;;;;;;;;;;;;;;;4996952;28;20487;-75
2023/04/03 11:03:43;;;;;;;;;;;;;;;;;;4999381;28;19913;-75
2023/04/03 11:06:30;;;;;;;;;;;;;;;;;;4992486;28;19925;-74
2023/04/03 11:09:16;;;;;;;;;;;;;;;;;;5000848;28;20190;-74
2023/04/03 11:12:03;;;;;;;;;;;;;;;;;;4998623;28;19929;-74
2023/04/03 11:14:49;;;;;;;;;;;;;;;;;;4999881;28;20004;-74
2023/04/03 11:17:36;;;;;;;;;;;;;;;;;;5001139;28;20675;-74
2023/04/03 11:20:27;;;;;;;;;;;;;;;;;;5000099;28;19917;-75
2023/04/03 11:23:15;;;;;;;;;;;;;;;;;;5000620;28;20413;-75
2023/04/03 11:26:01;;;;;;;;;;;;;;;;;;4998568;28;19918;-75
2023/04/03 11:28:48;;;;;;;;;;;;;;;;;;4984454;28;19917;-80
2023/04/03 11:31:35;;;;;;;;;;;;;;;;;;4996149;28;19930;-79
2023/04/03 11:34:21;;;;;;;;;;;;;;;;;;4996703;28;19917;-74
2023/04/03 11:37:08;;;;;;;;;;;;;;;;;;5001303;28;19917;-74
2023/04/03 11:39:54;;;;;;;;;;;;;;;;;;4998192;28;19913;-75
2023/04/03 11:42:42;;;;;;;;;;;;;;;;;;4997641;28;19924;-74
2023/04/03 11:45:29;;;;;;;;;;;;;;;;;;4995613;28;19924;-75
2023/04/03 11:48:16;;;;;;;;;;;;;;;;;;4990665;28;19960;-75
2023/04/03 11:51:02;;;;;;;;;;;;;;;;;;5003903;28;19940;-74
2023/04/03 11:53:49;;;;;;;;;;;;;;;;;;4991269;28;19928;-74
2023/04/03 11:56:35;;;;;;;;;;;;;;;;;;4987944;28;19921;-75
2023/04/03 11:59:22;;;;;;;;;;;;;;;;;;5002550;28;19917;-75
2023/04/03 12:02:09;;;;;;;;;;;;;;;;;;4993964;28;19918;-76
2023/04/03 12:04:55;;;;;;;;;;;;;;;;;;4994000;28;19921;-75
2023/04/03 12:07:42;;;;;;;;;;;;;;;;;;5002933;28;19925;-75
2023/04/03 12:10:29;;;;;;;;;;;;;;;;;;5000425;28;19928;-75
2023/04/03 12:13:15;;;;;;;;;;;;;;;;;;4997870;28;19929;-75
2023/04/03 12:16:03;;;;;;;;;;;;;;;;;;5002889;28;19929;-75
2023/04/03 12:18:50;;;;;;;;;;;;;;;;;;4993665;28;19921;-75
2023/04/03 12:21:36;;;;;;;;;;;;;;;;;;4997634;28;20037;-76
2023/04/03 12:24:23;;;;;;;;;;;;;;;;;;5000693;28;19919;-76
2023/04/03 12:27:09;;;;;;;;;;;;;;;;;;5004201;28;19929;-76
2023/04/03 12:29:56;;;;;;;;;;;;;;;;;;5000394;28;19918;-75
2023/04/03 12:32:43;;;;;;;;;;;;;;;;;;5000825;28;19953;-79
2023/04/03 12:35:29;;;;;;;;;;;;;;;;;;4998090;28;19914;-75
2023/04/03 12:38:16;;;;;;;;;;;;;;;;;;5000638;28;20293;-75
2023/04/03 12:41:03;;;;;;;;;;;;;;;;;;4979699;28;19918;-75
2023/04/03 12:43:49;;;;;;;;;;;;;;;;;;5000675;28;19932;-75
2023/04/03 12:46:37;;;;;;;;;;;;;;;;;;5005200;28;19917;-75
2023/04/03 12:49:23;;;;;;;;;;;;;;;;;;5000478;28;19925;-76
2023/04/03 12:52:10;;;;;;;;;;;;;;;;;;5004832;28;19929;-82
2023/04/03 12:54:57;;;;;;;;;;;;;;;;;;5005253;28;19932;-82
2023/04/03 12:57:43;;;;;;;;;;;;;;;;;;5006612;28;19924;-82
2023/04/03 13:00:30;;;;;;;;;;;;;;;;;;4995035;28;19918;-83
2023/04/03 13:03:16;;;;;;;;;;;;;;;;;;5009024;28;20288;-83
2023/04/03 13:06:03;;;;;;;;;;;;;;;;;;5004160;28;19913;-82
2023/04/03 13:08:50;;;;;;;;;;;;;;;;;;5000648;28;19921;-82
2023/04/03 13:11:36;;;;;;;;;;;;;;;;;;5004896;28;19928;-82
2023/04/03 13:14:23;;;;;;;;;;;;;;;;;;5001154;28;19917;-82
2023/04/03 13:17:09;;;;;;;;;;;;;;;;;;5001495;28;19929;-83
2023/04/03 13:19:56;;;;;;;;;;;;;;;;;;4992244;28;19932;-82
2023/04/03 13:22:43;;;;;;;;;;;;;;;;;;5005900;28;19925;-82
2023/04/03 13:25:30;;;;;;;;;;;;;;;;;;4993285;28;19914;-81
2023/04/03 13:28:16;;;;;;;;;;;;;;;;;;5004932;28;19924;-83
2023/04/03 13:31:03;;;;;;;;;;;;;;;;;;4997417;28;19971;-82
2023/04/03 13:33:50;;;;;;;;;;;;;;;;;;5000312;28;19932;-84
2023/04/03 13:36:36;;;;;;;;;;;;;;;;;;5001878;28;20350;-84
2023/04/03 13:39:23;;;;;;;;;;;;;;;;;;4997575;28;20384;-84
2023/04/03 13:42:09;;;;;;;;;;;;;;;;;;4998923;28;19929;-84
2023/04/03 13:44:56;;;;;;;;;;;;;;;;;;4991292;28;19918;-82
2023/04/03 13:47:42;;;;;;;;;;;;;;;;;;5005419;28;19917;-82
2023/04/03 13:50:29;;;;;;;;;;;;;;;;;;4998880;28;20681;-83
2023/04/03 13:53:15;;;;;;;;;;;;;;;;;;4993695;28;19976;-82
2023/04/03 13:56:02;;;;;;;;;;;;;;;;;;4991787;28;19929;-81
2023/04/03 13:58:48;;;;;;;;;;;;;;;;;;4992451;28;19928;-81
2023/04/03 14:01:35;;;;;;;;;;;;;;;;;;5001256;28;19913;-81
2023/04/03 14:04:21;;;;;;;;;;;;;;;;;;4979951;28;19924;-82
2023/04/03 14:07:08;;;;;;;;;;;;;;;;;;4994340;28;19929;-81
2023/04/03 14:09:54;;;;;;;;;;;;;;;;;;4999901;28;19924;-82
2023/04/03 14:12:41;;;;;;;;;;;;;;;;;;5000629;28;19933;-81
2023/04/03 14:15:28;;;;;;;;;;;;;;;;;;4999353;28;19929;-81
2023/04/03 14:18:14;;;;;;;;;;;;;;;;;;5002883;28;19948;-81
2023/04/03 14:21:01;;;;;;;;;;;;;;;;;;5001213;28;19929;-80
2023/04/03 14:23:47;;;;;;;;;;;;;;;;;;4989539;28;19928;-81
2023/04/03 14:26:34;;;;;;;;;;;;;;;;;;5000236;28;19924;-81
2023/04/03 14:29:21;;;;;;;;;;;;;;;;;;5000169;28;19939;-82
2023/04/03 14:32:07;;;;;;;;;;;;;;;;;;4996669;28;19928;-82
2023/04/03 14:34:55;;;;;;;;;;;;;;;;;;5001313;28;20352;-81
2023/04/03 14:37:41;;;;;;;;;;;;;;;;;;4989743;28;19931;-81
2023/04/03 14:40:28;;;;;;;;;;;;;;;;;;5002622;28;19938;-81
2023/04/03 14:43:15;;;;;;;;;;;;;;;;;;4998825;28;19929;-81
2023/04/03 14:46:01;;;;;;;;;;;;;;;;;;5001912;28;19917;-81
2023/04/03 14:48:47;;;;;;;;;;;;;;;;;;4992067;28;20212;-82
2023/04/03 14:51:34;;;;;;;;;;;;;;;;;;4993013;28;19925;-82
2023/04/03 14:54:25;;;;;;;;;;;;;;;;;;5001816;28;19936;-82
2023/04/03 14:57:11;;;;;;;;;;;;;;;;;;5001111;28;19918;-82
2023/04/03 14:59:58;;;;;;;;;;;;;;;;;;4999524;28;19921;-82
2023/04/03 15:02:45;;;;;;;;;;;;;;;;;;4997933;28;19929;-82
2023/04/03 15:05:31;;;;;;;;;;;;;;;;;;4998866;28;19918;-82
2023/04/03 15:08:18;;;;;;;;;;;;;;;;;;5001147;28;19958;-82
2023/04/03 15:11:06;;;;;;;;;;;;;;;;;;5001677;28;19917;-81
2023/04/03 15:13:52;;;;;;;;;;;;;;;;;;4997948;28;19960;-81
2023/04/03 15:16:38;;;;;;;;;;;;;;;;;;4976848;28;20014;-81
2023/04/03 15:19:25;;;;;;;;;;;;;;;;;;4976797;28;19932;-82
2023/04/03 15:22:11;;;;;;;;;;;;;;;;;;4983065;28;19925;-80
2023/04/03 15:24:58;;;;;;;;;;;;;;;;;;4982979;28;19922;-81
2023/04/03 15:27:44;;;;;;;;;;;;;;;;;;4980741;28;19918;-81
2023/04/03 15:30:31;;;;;;;;;;;;;;;;;;4980333;28;20558;-81
2023/04/03 15:33:17;;;;;;;;;;;;;;;;;;4985685;28;19926;-81
2023/04/03 15:36:04;;;;;;;;;;;;;;;;;;4984931;28;20092;-81
2023/04/03 15:38:50;;;;;;;;;;;;;;;;;;4983343;28;19936;-81
2023/04/03 15:41:37;;;;;;;;;;;;;;;;;;4988086;28;19924;-82
2023/04/03 15:44:23;;;;;;;;;;;;;;;;;;4982196;28;19922;-81
2023/04/03 15:47:10;;;;;;;;;;;;;;;;;;4986845;28;20365;-81
2023/04/03 15:49:56;;;;;;;;;;;;;;;;;;4986935;28;19926;-81
2023/04/03 15:52:43;;;;;;;;;;;;;;;;;;4985878;28;19929;-81
2023/04/03 15:55:29;;;;;;;;;;;;;;;;;;4988266;28;19921;-81
2023/04/03 15:58:16;;;;;;;;;;;;;;;;;;4980819;28;20300;-81
2023/04/03 16:01:02;;;;;;;;;;;;;;;;;;4981340;28;19925;-81
2023/04/03 16:03:49;;;;;;;;;;;;;;;;;;4983993;28;19922;-81
2023/04/03 16:06:35;;;;;;;;;;;;;;;;;;4987016;28;19922;-81
2023/04/03 16:09:22;;;;;;;;;;;;;;;;;;4986591;28;19918;-80
2023/04/03 16:12:08;;;;;;;;;;;;;;;;;;4989096;28;19937;-81
2023/04/03 16:14:55;;;;;;;;;;;;;;;;;;4994412;28;20009;-82
2023/04/03 16:17:41;;;;;;;;;;;;;;;;;;5007695;28;19917;-82
2023/04/03 16:20:28;;;;;;;;;;;;;;;;;;5002917;28;19918;-81
2023/04/03 16:23:14;;;;;;;;;;;;;;;;;;5003236;28;20374;-82
2023/04/03 16:26:01;;;;;;;;;;;;;;;;;;5000546;28;19925;-83
2023/04/03 16:28:48;;;;;;;;;;;;;;;;;;4999099;28;19933;-81
2023/04/03 16:31:35;;;;;;;;;;;;;;;;;;5005524;28;19917;-81
2023/04/03 16:34:21;;;;;;;;;;;;;;;;;;5008004;28;19922;-81
2023/04/03 16:37:08;;;;;;;;;;;;;;;;;;5006649;28;19917;-81
2023/04/03 16:39:54;;;;;;;;;;;;;;;;;;5005854;28;19925;-81
2023/04/03 16:42:41;;;;;;;;;;;;;;;;;;4995151;28;20385;-83
2023/04/03 16:45:27;;;;;;;;;;;;;;;;;;5012641;28;19921;-82
2023/04/03 16:48:14;;;;;;;;;;;;;;;;;;5010085;28;19925;-82
2023/04/03 16:51:00;;;;;;;;;;;;;;;;;;4994232;28;20658;-81
2023/04/03 16:53:47;;;;;;;;;;;;;;;;;;5003539;28;20389;-81
2023/04/03 16:56:33;;;;;;;;;;;;;;;;;;5006546;28;19932;-81
2023/04/03 16:59:20;;;;;;;;;;;;;;;;;;5005138;28;19918;-82
2023/04/03 17:02:06;;;;;;;;;;;;;;;;;;5000002;28;19921;-80
2023/04/03 17:04:53;;;;;;;;;;;;;;;;;;4993823;28;20290;-81
2023/04/03 17:07:39;;;;;;;;;;;;;;;;;;5000092;28;19925;-82
2023/04/03 17:10:26;;;;;;;;;;;;;;;;;;5006613;28;20271;-81
2023/04/03 17:13:12;;;;;;;;;;;;;;;;;;4999108;28;20317;-81
2023/04/03 17:15:59;;;;;;;;;;;;;;;;;;4999853;28;19936;-82
2023/04/03 17:18:45;;;;;;;;;;;;;;;;;;4995450;28;19917;-82
2023/04/03 17:21:32;;;;;;;;;;;;;;;;;;5003237;28;19944;-82
2023/04/03 17:24:18;;;;;;;;;;;;;;;;;;5000444;28;20012;-80
2023/04/03 17:27:05;;;;;;;;;;;;;;;;;;5005547;28;19927;-79
2023/04/03 17:29:51;;;;;;;;;;;;;;;;;;5001720;28;19917;-80
2023/04/03 17:32:38;;;;;;;;;;;;;;;;;;4999634;28;19940;-81
2023/04/03 17:35:24;;;;;;;;;;;;;;;;;;4983211;28;19924;-81
2023/04/03 17:38:11;;;;;;;;;;;;;;;;;;4995757;28;19932;-81
2023/04/03 17:40:57;;;;;;;;;;;;;;;;;;5002176;28;19917;-80
2023/04/03 17:43:44;;;;;;;;;;;;;;;;;;4996909;28;19921;-79
2023/04/03 17:46:31;;;;;;;;;;;;;;;;;;5000271;28;20380;-80
2023/04/03 17:49:19;;;;;;;;;;;;;;;;;;5000779;28;19914;-79
2023/04/03 17:52:05;;;;;;;;;;;;;;;;;;5003690;28;20400;-80
2023/04/03 17:54:52;;;;;;;;;;;;;;;;;;4997441;28;19926;-80
2023/04/03 17:57:38;;;;;;;;;;;;;;;;;;4991974;28;19921;-80
2023/04/03 18:00:25;;;;;;;;;;;;;;;;;;5002307;28;19930;-82
2023/04/03 18:03:11;;;;;;;;;;;;;;;;;;5001949;28;19928;-82
2023/04/03 18:05:58;;;;;;;;;;;;;;;;;;4997723;28;19925;-83
2023/04/03 18:08:44;;;;;;;;;;;;;;;;;;4999699;28;19928;-83
2023/04/03 18:11:31;;;;;;;;;;;;;;;;;;4998774;28;19922;-83
2023/04/03 18:14:17;;;;;;;;;;;;;;;;;;4995119;28;19938;-84
2023/04/03 18:17:04;;;;;;;;;;;;;;;;;;4995578;28;20640;-81
2023/04/03 18:19:50;;;;;;;;;;;;;;;;;;4999994;28;19929;-80
2023/04/03 18:22:37;;;;;;;;;;;;;;;;;;5003665;28;19921;-81
2023/04/03 18:25:23;;;;;;;;;;;;;;;;;;4994711;28;19933;-82
2023/04/03 18:28:10;;;;;;;;;;;;;;;;;;5002844;28;19921;-80
2023/04/03 18:30:56;;;;;;;;;;;;;;;;;;4998675;28;19925;-80
2023/04/03 18:33:43;;;;;;;;;;;;;;;;;;5002537;28;19932;-80
2023/04/03 18:36:29;;;;;;;;;;;;;;;;;;4999473;28;19948;-80
2023/04/03 18:39:16;;;;;;;;;;;;;;;;;;4992032;28;19922;-80
2023/04/03 18:42:02;;;;;;;;;;;;;;;;;;4990071;28;19917;-79
2023/04/03 18:44:48;;;;;;;;;;;;;;;;;;4986494;28;19921;-80
2023/04/03 18:47:35;;;;;;;;;;;;;;;;;;4997787;28;19921;-80
2023/04/03 18:50:22;;;;;;;;;;;;;;;;;;5000438;28;19918;-80
2023/04/03 18:53:08;;;;;;;;;;;;;;;;;;4996305;28;19925;-79
2023/04/03 18:55:55;;;;;;;;;;;;;;;;;;5000811;28;19929;-82
2023/04/03 18:58:41;;;;;;;;;;;;;;;;;;5000291;28;19929;-92